createdAt,value
2023-04-01T00:01:27.279Z,13.90
2023-04-01T00:03:34.655Z,13.90
2023-04-01T00:05:37.710Z,13.90
2023-04-01T00:07:40.865Z,13.90
2023-04-01T00:09:43.629Z,13.80
2023-04-01T00:11:46.637Z,13.80
2023-04-01T00:13:49.823Z,13.80
2023-04-01T00:15:52.966Z,13.70
2023-04-01T00:17:56.288Z,13.80
2023-04-01T00:20:01.242Z,13.70
2023-04-01T00:22:03.994Z,13.70
2023-04-01T00:24:06.913Z,13.60
2023-04-01T00:26:09.854Z,13.60
2023-04-01T00:28:12.699Z,13.70
2023-04-01T00:30:16.367Z,13.60
2023-04-01T00:32:19.197Z,13.60
2023-04-01T00:34:22.134Z,13.50
2023-04-01T00:36:26.336Z,13.40
2023-04-01T00:38:29.081Z,13.50
2023-04-01T00:40:35.441Z,13.50
2023-04-01T00:42:38.359Z,13.50
2023-04-01T00:44:41.554Z,13.50
2023-04-01T00:46:44.491Z,13.60
2023-04-01T00:48:52.277Z,13.50
2023-04-01T00:50:59.188Z,13.50
2023-04-01T00:53:04.248Z,13.60
2023-04-01T00:55:08.736Z,13.60
2023-04-01T00:57:15.815Z,13.60
2023-04-01T00:59:25.040Z,13.50
2023-04-01T01:01:29.836Z,13.60
2023-04-01T01:03:32.656Z,13.60
2023-04-01T01:05:50.630Z,13.60
2023-04-01T01:08:01.390Z,13.70
2023-04-01T01:10:12.751Z,13.60
2023-04-01T01:12:19.574Z,13.60
2023-04-01T01:14:32.608Z,13.60
2023-04-01T01:16:41.313Z,13.70
2023-04-01T01:18:51.402Z,13.60
2023-04-01T01:21:23.885Z,13.70
2023-04-01T01:23:49.822Z,13.70
2023-04-01T01:26:03.467Z,13.70
2023-04-01T01:28:26.894Z,13.70
2023-04-01T01:30:41.250Z,13.80
2023-04-01T01:33:11.721Z,13.70
2023-04-01T01:35:24.673Z,13.80
2023-04-01T01:37:29.351Z,13.70
2023-04-01T01:39:35.952Z,13.80
2023-04-01T01:41:41.813Z,13.70
2023-04-01T01:43:49.624Z,13.80
2023-04-01T01:45:56.826Z,13.80
2023-04-01T01:48:02.411Z,13.80
2023-04-01T01:50:07.235Z,13.80
2023-04-01T01:52:11.412Z,13.70
2023-04-01T01:54:14.671Z,13.70
2023-04-01T01:56:20.087Z,13.60
2023-04-01T01:58:26.914Z,13.70
2023-04-01T02:00:30.967Z,13.70
2023-04-01T02:02:33.943Z,13.70
2023-04-01T02:04:40.258Z,13.70
2023-04-01T02:06:48.863Z,13.60
2023-04-01T02:08:56.510Z,13.70
2023-04-01T02:11:03.147Z,13.70
2023-04-01T02:13:11.686Z,13.80
2023-04-01T02:15:17.826Z,13.80
2023-04-01T02:17:22.713Z,13.80
2023-04-01T02:19:30.721Z,13.70
2023-04-01T02:21:34.214Z,13.70
2023-04-01T02:23:38.626Z,13.70
2023-04-01T02:25:45.471Z,13.60
2023-04-01T02:27:49.006Z,13.70
2023-04-01T02:29:52.227Z,13.70
2023-04-01T02:31:56.645Z,13.60
2023-04-01T02:34:00.252Z,13.70
2023-04-01T02:36:03.102Z,13.60
2023-04-01T02:38:07.267Z,13.60
2023-04-01T02:40:13.312Z,13.70
2023-04-01T02:42:17.682Z,13.70
2023-04-01T02:44:20.824Z,13.70
2023-04-01T02:46:23.577Z,13.70
2023-04-01T02:48:26.654Z,13.70
2023-04-01T02:50:29.380Z,13.70
2023-04-01T02:52:32.770Z,13.70
2023-04-01T02:54:35.590Z,13.70
2023-04-01T02:56:38.477Z,13.70
2023-04-01T02:58:42.601Z,13.70
2023-04-01T03:00:45.720Z,13.70
2023-04-01T03:02:48.660Z,13.60
2023-04-01T03:04:51.604Z,13.60
2023-04-01T03:06:54.735Z,13.60
2023-04-01T03:08:57.776Z,13.60
2023-04-01T03:11:00.738Z,13.60
2023-04-01T03:13:03.563Z,13.60
2023-04-01T03:15:10.922Z,13.60
2023-04-01T03:17:14.377Z,13.60
2023-04-01T03:19:17.155Z,13.70
2023-04-01T03:21:22.095Z,13.70
2023-04-01T03:23:25.265Z,13.60
2023-04-01T03:25:29.901Z,13.60
2023-04-01T03:27:32.804Z,13.50
2023-04-01T03:29:35.536Z,13.50
2023-04-01T03:31:39.717Z,13.50
2023-04-01T03:33:42.733Z,13.50
2023-04-01T03:35:45.702Z,13.50
2023-04-01T03:37:48.700Z,13.60
2023-04-01T03:39:51.669Z,13.60
2023-04-01T03:41:54.517Z,13.60
2023-04-01T03:43:57.249Z,13.60
2023-04-01T03:46:00.185Z,13.60
2023-04-01T03:48:04.433Z,13.60
2023-04-01T03:50:08.975Z,13.60
2023-04-01T03:52:12.694Z,13.60
2023-04-01T03:54:16.122Z,13.50
2023-04-01T03:56:18.925Z,13.50
2023-04-01T03:58:21.848Z,13.50
2023-04-01T04:00:24.795Z,13.50
2023-04-01T04:02:27.575Z,13.50
2023-04-01T04:04:32.029Z,13.50
2023-04-01T04:06:35.313Z,13.50
2023-04-01T04:08:38.143Z,13.50
2023-04-01T04:10:40.922Z,13.50
2023-04-01T04:12:43.711Z,13.50
2023-04-01T04:14:46.504Z,13.50
2023-04-01T04:16:49.288Z,13.60
2023-04-01T04:18:52.472Z,13.50
2023-04-01T04:20:56.672Z,13.50
2023-04-01T04:22:59.473Z,13.50
2023-04-01T04:25:02.260Z,13.60
2023-04-01T04:27:05.618Z,13.60
2023-04-01T04:29:08.365Z,13.50
2023-04-01T04:31:11.247Z,13.50
2023-04-01T04:33:14.125Z,13.40
2023-04-01T04:35:17.396Z,13.40
2023-04-01T04:37:21.444Z,13.40
2023-04-01T04:39:24.202Z,13.40
2023-04-01T04:41:27.049Z,13.40
2023-04-01T04:43:29.888Z,13.40
2023-04-01T04:45:32.948Z,13.40
2023-04-01T04:47:35.833Z,13.30
2023-04-01T04:49:38.700Z,13.30
2023-04-01T04:51:41.708Z,13.20
2023-04-01T04:53:46.591Z,13.20
2023-04-01T04:55:51.216Z,13.20
2023-04-01T04:57:54.020Z,13.10
2023-04-01T04:59:56.831Z,13.10
2023-04-01T05:01:59.727Z,13.10
2023-04-01T05:04:02.476Z,13.10
2023-04-01T05:06:06.084Z,13.10
2023-04-01T05:08:08.906Z,13.10
2023-04-01T05:10:13.190Z,13.20
2023-04-01T05:12:16.268Z,13.20
2023-04-01T05:14:19.132Z,13.10
2023-04-01T05:16:23.144Z,13.20
2023-04-01T05:18:26.103Z,13.30
2023-04-01T05:20:28.900Z,13.20
2023-04-01T05:22:31.721Z,13.30
2023-04-01T05:24:34.896Z,13.30
2023-04-01T05:26:39.364Z,13.30
2023-04-01T05:28:42.845Z,13.30
2023-04-01T05:30:46.064Z,13.30
2023-04-01T05:32:49.091Z,13.30
2023-04-01T05:34:52.583Z,13.40
2023-04-01T05:36:55.328Z,13.50
2023-04-01T05:38:58.251Z,13.50
2023-04-01T05:41:01.505Z,13.60
2023-04-01T05:43:05.855Z,13.60
2023-04-01T05:45:09.944Z,13.70
2023-04-01T05:47:12.805Z,13.80
2023-04-01T05:49:15.639Z,13.90
2023-04-01T05:51:18.466Z,13.90
2023-04-01T05:53:21.321Z,13.90
2023-04-01T05:55:24.333Z,14.10
2023-04-01T05:57:27.167Z,14.20
2023-04-01T05:59:32.228Z,14.30
2023-04-01T06:01:35.071Z,14.30
2023-04-01T06:03:38.780Z,14.20
2023-04-01T06:05:43.222Z,14.30
2023-04-01T06:07:46.090Z,14.30
2023-04-01T06:09:49.570Z,14.40
2023-04-01T06:12:21.397Z,14.40
2023-04-01T06:14:35.756Z,14.30
2023-04-01T06:16:51.404Z,14.30
2023-04-01T06:19:19.014Z,14.30
2023-04-01T06:21:52.525Z,14.20
2023-04-01T06:24:06.437Z,14.20
2023-04-01T06:26:20.930Z,14.30
2023-04-01T06:28:56.719Z,14.20
2023-04-01T06:31:07.679Z,14.20
2023-04-01T06:33:35.195Z,14.10
2023-04-01T06:35:53.365Z,14.10
2023-04-01T06:38:11.496Z,14.10
2023-04-01T06:40:37.237Z,14.10
2023-04-01T06:43:03.321Z,14.10
2023-04-01T06:45:18.532Z,14.10
2023-04-01T06:47:32.738Z,14.10
2023-04-01T06:49:46.685Z,14.20
2023-04-01T06:51:55.653Z,14.40
2023-04-01T06:54:05.323Z,14.40
2023-04-01T06:56:11.079Z,14.40
2023-04-01T06:58:22.527Z,14.30
2023-04-01T07:00:30.987Z,14.30
2023-04-01T07:02:41.969Z,14.40
2023-04-01T07:04:48.935Z,14.40
2023-04-01T07:06:56.154Z,14.40
2023-04-01T07:09:05.460Z,14.50
2023-04-01T07:11:12.500Z,14.40
2023-04-01T07:13:20.490Z,14.50
2023-04-01T07:15:27.284Z,14.50
2023-04-01T07:17:33.328Z,14.50
2023-04-01T07:19:46.376Z,14.60
2023-04-01T07:21:52.148Z,14.50
2023-04-01T07:23:58.909Z,14.50
2023-04-01T07:26:05.913Z,14.60
2023-04-01T07:28:15.423Z,14.70
2023-04-01T07:30:21.741Z,14.60
2023-04-01T07:32:36.178Z,14.50
2023-04-01T07:34:51.879Z,14.50
2023-04-01T07:37:02.412Z,14.70
2023-04-01T07:39:18.495Z,14.70
2023-04-01T07:41:31.535Z,14.90
2023-04-01T07:43:55.062Z,14.90
2023-04-01T07:46:09.584Z,14.90
2023-04-01T07:48:23.912Z,15.10
2023-04-01T07:50:33.294Z,15.20
2023-04-01T07:52:46.329Z,15.10
2023-04-01T07:54:54.928Z,15.10
2023-04-01T07:57:04.398Z,15.10
2023-04-01T07:59:15.105Z,15.10
2023-04-01T08:01:26.419Z,15.20
2023-04-01T08:03:37.901Z,15.40
2023-04-01T08:05:54.032Z,15.50
2023-04-01T08:08:09.711Z,15.50
2023-04-01T08:10:20.460Z,15.60
2023-04-01T08:12:37.313Z,15.70
2023-04-01T08:14:49.780Z,15.70
2023-04-01T08:17:02.644Z,15.50
2023-04-01T08:19:15.850Z,15.70
2023-04-01T08:21:23.405Z,15.60
2023-04-01T08:23:29.214Z,15.60
2023-04-01T08:25:35.322Z,15.70
2023-04-01T08:27:43.357Z,15.80
2023-04-01T08:29:52.410Z,15.80
2023-04-01T08:32:00.207Z,15.70
2023-04-01T08:34:06.936Z,15.60
2023-04-01T08:36:14.487Z,15.70
2023-04-01T08:38:25.675Z,15.60
2023-04-01T08:40:48.842Z,15.50
2023-04-01T08:43:07.306Z,15.70
2023-04-01T08:45:22.450Z,15.70
2023-04-01T08:47:44.436Z,15.70
2023-04-01T08:50:20.627Z,15.80
2023-04-01T08:52:36.692Z,15.90
2023-04-01T08:54:58.225Z,15.90
2023-04-01T08:57:06.332Z,15.90
2023-04-01T08:59:34.391Z,15.80
2023-04-01T09:02:02.835Z,15.80
2023-04-01T09:04:28.354Z,15.70
2023-04-01T09:06:39.599Z,15.70
2023-04-01T09:09:02.301Z,15.60
2023-04-01T09:11:14.493Z,15.50
2023-04-01T09:13:41.742Z,15.50
2023-04-01T09:15:59.509Z,15.60
2023-04-01T09:18:21.848Z,15.50
2023-04-01T09:20:42.606Z,15.50
2023-04-01T09:22:55.174Z,15.50
2023-04-01T09:25:25.245Z,15.50
2023-04-01T09:27:36.804Z,15.50
2023-04-01T09:30:01.007Z,15.60
2023-04-01T09:32:29.460Z,15.70
2023-04-01T09:34:56.571Z,15.80
2023-04-01T09:37:12.925Z,15.80
2023-04-01T09:39:36.396Z,15.80
2023-04-01T09:41:48.252Z,15.90
2023-04-01T09:44:03.969Z,15.80
2023-04-01T09:46:21.125Z,15.80
2023-04-01T09:48:44.525Z,15.90
2023-04-01T09:50:56.711Z,16.00
2023-04-01T09:53:16.340Z,16.00
2023-04-01T09:55:50.920Z,16.00
2023-04-01T09:58:18.597Z,16.00
2023-04-01T10:00:41.775Z,16.10
2023-04-01T10:03:30.018Z,16.30
2023-04-01T10:06:18.414Z,16.50
2023-04-01T10:08:54.025Z,16.40
2023-04-01T10:11:15.163Z,16.40
2023-04-01T10:13:40.632Z,16.30
2023-04-01T10:16:07.875Z,16.30
2023-04-01T10:18:54.328Z,16.40
2023-04-01T10:21:40.150Z,16.50
2023-04-01T10:24:04.371Z,16.40
2023-04-01T10:26:48.982Z,16.40
2023-04-01T10:29:17.906Z,16.40
2023-04-01T10:31:49.755Z,16.40
2023-04-01T10:34:25.893Z,16.40
2023-04-01T10:36:45.187Z,16.50
2023-04-01T10:39:14.377Z,16.60
2023-04-01T10:41:49.469Z,16.70
2023-04-01T10:44:19.231Z,16.80
2023-04-01T10:46:53.740Z,16.80
2023-04-01T10:49:24.485Z,16.90
2023-04-01T10:51:53.711Z,16.90
2023-04-01T10:54:22.519Z,16.90
2023-04-01T10:56:47.622Z,16.90
2023-04-01T10:59:22.608Z,16.80
2023-04-01T11:01:52.603Z,16.70
2023-04-01T11:04:40.904Z,16.60
2023-04-01T11:07:26.538Z,16.40
2023-04-01T11:10:03.484Z,16.40
2023-04-01T11:12:23.332Z,16.30
2023-04-01T11:15:05.351Z,16.30
2023-04-01T11:17:46.206Z,16.30
2023-04-01T11:20:09.486Z,16.50
2023-04-01T11:22:31.713Z,16.40
2023-04-01T11:25:07.740Z,16.60
2023-04-01T11:27:22.375Z,16.60
2023-04-01T11:29:59.339Z,16.70
2023-04-01T11:32:15.287Z,16.70
2023-04-01T11:34:41.948Z,16.70
2023-04-01T11:36:57.836Z,16.70
2023-04-01T11:39:13.771Z,16.80
2023-04-01T11:41:28.223Z,16.80
2023-04-01T11:43:38.504Z,16.90
2023-04-01T11:45:47.743Z,16.80
2023-04-01T11:48:09.437Z,16.90
2023-04-01T11:50:22.186Z,17.00
2023-04-01T11:52:48.352Z,17.10
2023-04-01T11:55:07.964Z,17.20
2023-04-01T11:57:30.529Z,17.30
2023-04-01T11:59:49.868Z,17.30
2023-04-01T12:02:01.734Z,17.40
2023-04-01T12:04:33.965Z,17.50
2023-04-01T12:06:46.131Z,17.60
2023-04-01T12:08:58.250Z,17.80
2023-04-01T12:11:07.119Z,18.00
2023-04-01T12:13:20.531Z,18.00
2023-04-01T12:15:31.556Z,18.10
2023-04-01T12:17:45.408Z,18.20
2023-04-01T12:19:53.588Z,18.30
2023-04-01T12:22:14.325Z,18.40
2023-04-01T12:24:41.644Z,18.40
2023-04-01T12:27:01.737Z,18.30
2023-04-01T12:29:23.580Z,18.20
2023-04-01T12:31:36.138Z,18.00
2023-04-01T12:33:50.257Z,17.90
2023-04-01T12:36:01.427Z,17.80
2023-04-01T12:38:24.294Z,17.80
2023-04-01T12:40:40.905Z,17.80
2023-04-01T12:43:00.642Z,17.70
2023-04-01T12:45:17.242Z,17.60
2023-04-01T12:47:53.745Z,17.70
2023-04-01T12:50:16.809Z,17.80
2023-04-01T12:52:28.199Z,17.80
2023-04-01T12:55:20.184Z,18.00
2023-04-01T12:57:42.935Z,18.20
2023-04-01T13:00:04.135Z,18.40
2023-04-01T13:02:15.860Z,18.40
2023-04-01T13:04:55.137Z,18.50
2023-04-01T13:07:17.746Z,18.60
2023-04-01T13:09:38.158Z,18.70
2023-04-01T13:11:56.405Z,18.70
2023-04-01T13:14:34.297Z,18.70
2023-04-01T13:16:41.753Z,18.70
2023-04-01T13:18:58.454Z,18.60
2023-04-01T13:21:12.097Z,18.50
2023-04-01T13:23:30.283Z,18.50
2023-04-01T13:25:41.130Z,18.50
2023-04-01T13:27:46.968Z,18.30
2023-04-01T13:30:04.258Z,18.20
2023-04-01T13:32:17.716Z,18.20
2023-04-01T13:34:36.207Z,18.10
2023-04-01T13:36:50.188Z,18.00
2023-04-01T13:39:15.378Z,17.90
2023-04-01T13:41:27.196Z,17.80
2023-04-01T13:43:36.889Z,17.80
2023-04-01T13:45:56.929Z,17.80
2023-04-01T13:48:27.673Z,17.90
2023-04-01T13:50:48.185Z,18.00
2023-04-01T13:53:17.678Z,18.00
2023-04-01T13:55:33.446Z,18.20
2023-04-01T13:57:55.783Z,18.20
2023-04-01T14:00:22.711Z,18.10
2023-04-01T14:02:55.737Z,18.00
2023-04-01T14:05:15.463Z,17.90
2023-04-01T14:07:28.445Z,17.80
2023-04-01T14:09:53.564Z,17.70
2023-04-01T14:12:03.320Z,17.70
2023-04-01T14:14:18.581Z,17.50
2023-04-01T14:17:05.786Z,17.40
2023-04-01T14:19:26.464Z,17.30
2023-04-01T14:21:37.933Z,17.30
2023-04-01T14:23:58.811Z,17.40
2023-04-01T14:26:16.272Z,17.50
2023-04-01T14:28:30.560Z,17.50
2023-04-01T14:30:43.179Z,17.60
2023-04-01T14:32:54.838Z,17.80
2023-04-01T14:35:15.733Z,17.90
2023-04-01T14:37:34.217Z,17.90
2023-04-01T14:39:52.646Z,17.80
2023-04-01T14:42:22.017Z,17.80
2023-04-01T14:44:38.865Z,17.70
2023-04-01T14:47:05.180Z,17.70
2023-04-01T14:49:20.404Z,17.60
2023-04-01T14:51:32.777Z,17.50
2023-04-01T14:53:39.893Z,17.50
2023-04-01T14:55:51.687Z,17.50
2023-04-01T14:58:06.462Z,17.50
2023-04-01T15:00:16.746Z,17.40
2023-04-01T15:02:47.496Z,17.40
2023-04-01T15:04:59.671Z,17.30
2023-04-01T15:07:32.325Z,17.30
2023-04-01T15:09:45.365Z,17.20
2023-04-01T15:11:59.458Z,17.10
2023-04-01T15:14:39.494Z,16.70
2023-04-01T15:16:51.754Z,16.60
2023-04-01T15:19:05.802Z,16.40
2023-04-01T15:21:43.309Z,16.30
2023-04-01T15:23:58.206Z,16.40
2023-04-01T15:26:15.405Z,16.50
2023-04-01T15:28:28.439Z,16.60
2023-04-01T15:30:39.642Z,16.70
2023-04-01T15:32:57.614Z,16.70
2023-04-01T15:35:12.169Z,16.80
2023-04-01T15:37:22.852Z,16.90
2023-04-01T15:39:39.786Z,16.90
2023-04-01T15:41:51.957Z,17.00
2023-04-01T15:43:54.903Z,17.00
2023-04-01T15:46:11.503Z,17.10
2023-04-01T15:48:33.522Z,17.10
2023-04-01T15:50:54.960Z,17.20
2023-04-01T15:53:10.103Z,17.10
2023-04-01T15:55:22.962Z,17.20
2023-04-01T15:57:34.398Z,17.20
2023-04-01T16:00:06.631Z,17.20
2023-04-01T16:02:17.599Z,17.30
2023-04-01T16:04:48.545Z,17.30
2023-04-01T16:07:04.595Z,17.20
2023-04-01T16:09:22.713Z,17.20
2023-04-01T16:11:34.605Z,17.00
2023-04-01T16:13:48.417Z,17.00
2023-04-01T16:15:58.307Z,17.00
2023-04-01T16:18:25.822Z,16.90
2023-04-01T16:20:45.043Z,16.90
2023-04-01T16:22:56.264Z,16.70
2023-04-01T16:25:19.320Z,16.70
2023-04-01T16:27:31.543Z,16.60
2023-04-01T16:29:40.278Z,16.60
2023-04-01T16:31:48.268Z,16.40
2023-04-01T16:33:57.400Z,16.30
2023-04-01T16:36:12.284Z,16.30
2023-04-01T16:38:21.484Z,16.30
2023-04-01T16:40:38.666Z,16.30
2023-04-01T16:42:49.207Z,16.20
2023-04-01T16:44:57.881Z,16.20
2023-04-01T16:47:08.162Z,16.10
2023-04-01T16:49:27.533Z,15.90
2023-04-01T16:51:43.905Z,15.80
2023-04-01T16:53:51.577Z,15.80
2023-04-01T16:56:01.707Z,15.50
2023-04-01T16:58:07.913Z,15.50
2023-04-01T17:00:20.704Z,15.70
2023-04-01T17:02:28.444Z,15.80
2023-04-01T17:04:38.023Z,15.90
2023-04-01T17:06:46.350Z,15.90
2023-04-01T17:09:03.980Z,15.90
2023-04-01T17:11:14.858Z,16.00
2023-04-01T17:13:31.484Z,15.90
2023-04-01T17:15:43.446Z,15.80
2023-04-01T17:17:53.805Z,15.80
2023-04-01T17:20:27.856Z,15.90
2023-04-01T17:22:36.197Z,15.90
2023-04-01T17:24:51.218Z,15.90
2023-04-01T17:27:04.074Z,15.90
2023-04-01T17:29:18.030Z,15.70
2023-04-01T17:31:35.718Z,15.70
2023-04-01T17:33:59.369Z,15.70
2023-04-01T17:36:08.685Z,15.70
2023-04-01T17:38:22.572Z,15.70
2023-04-01T17:40:46.389Z,15.70
2023-04-01T17:42:56.405Z,15.70
2023-04-01T17:45:06.916Z,15.70
2023-04-01T17:47:31.136Z,15.60
2023-04-01T17:49:39.516Z,15.60
2023-04-01T17:51:48.457Z,15.50
2023-04-01T17:53:58.205Z,15.30
2023-04-01T17:56:16.297Z,15.30
2023-04-01T17:58:23.579Z,15.10
2023-04-01T18:00:50.681Z,15.10
2023-04-01T18:03:09.038Z,15.10
2023-04-01T18:05:38.213Z,15.20
2023-04-01T18:07:59.956Z,15.20
2023-04-01T18:10:22.717Z,15.20
2023-04-01T18:12:38.300Z,15.20
2023-04-01T18:14:59.620Z,15.20
2023-04-01T18:17:33.555Z,15.20
2023-04-01T18:19:49.955Z,15.10
2023-04-01T18:21:57.432Z,15.00
2023-04-01T18:24:04.717Z,14.90
2023-04-01T18:26:13.748Z,14.90
2023-04-01T18:28:28.602Z,14.90
2023-04-01T18:30:34.825Z,15.00
2023-04-01T18:32:48.173Z,15.00
2023-04-01T18:35:00.304Z,15.00
2023-04-01T18:37:19.103Z,14.90
2023-04-01T18:39:32.647Z,15.00
2023-04-01T18:41:42.966Z,15.00
2023-04-01T18:44:01.447Z,15.00
2023-04-01T18:46:10.493Z,15.00
2023-04-01T18:48:44.403Z,15.00
2023-04-01T18:50:54.854Z,15.00
2023-04-01T18:53:01.787Z,15.00
2023-04-01T18:55:31.827Z,14.90
2023-04-01T18:57:42.920Z,15.00
2023-04-01T18:59:52.904Z,15.00
2023-04-01T19:02:04.769Z,14.90
2023-04-01T19:04:20.735Z,14.90
2023-04-01T19:06:30.207Z,14.90
2023-04-01T19:08:35.023Z,14.90
2023-04-01T19:10:48.471Z,14.90
2023-04-01T19:13:05.248Z,14.90
2023-04-01T19:15:28.203Z,14.80
2023-04-01T19:17:43.452Z,14.90
2023-04-01T19:19:57.637Z,14.90
2023-04-01T19:22:04.901Z,14.90
2023-04-01T19:24:26.920Z,14.90
2023-04-01T19:26:34.206Z,14.90
2023-04-01T19:28:49.704Z,14.90
2023-04-01T19:30:59.039Z,14.80
2023-04-01T19:33:14.887Z,14.70
2023-04-01T19:35:31.015Z,14.70
2023-04-01T19:37:41.460Z,14.60
2023-04-01T19:39:55.829Z,14.60
2023-04-01T19:42:07.020Z,14.60
2023-04-01T19:44:28.038Z,14.60
2023-04-01T19:46:35.973Z,14.60
2023-04-01T19:48:50.739Z,14.60
2023-04-01T19:50:59.776Z,14.60
2023-04-01T19:53:12.913Z,14.60
2023-04-01T19:55:32.776Z,14.60
2023-04-01T19:57:46.907Z,14.60
2023-04-01T19:59:55.369Z,14.60
2023-04-01T20:02:03.615Z,14.70
2023-04-01T20:04:13.602Z,14.70
2023-04-01T20:06:30.510Z,14.70
2023-04-01T20:08:38.963Z,14.60
2023-04-01T20:10:48.392Z,14.50
2023-04-01T20:13:01.158Z,14.40
2023-04-01T20:15:08.951Z,14.20
2023-04-01T20:17:20.954Z,14.00
2023-04-01T20:19:30.541Z,13.90
2023-04-01T20:21:38.512Z,13.70
2023-04-01T20:23:46.103Z,13.70
2023-04-01T20:25:54.611Z,13.70
2023-04-01T20:28:01.236Z,13.70
2023-04-01T20:30:41.690Z,13.70
2023-04-01T20:32:59.499Z,13.70
2023-04-01T20:35:43.633Z,13.60
2023-04-01T20:37:55.739Z,13.50
2023-04-01T20:40:27.845Z,13.60
2023-04-01T20:42:48.252Z,13.60
2023-04-01T20:45:03.104Z,13.60
2023-04-01T20:47:19.128Z,13.60
2023-04-01T20:49:41.062Z,13.40
2023-04-01T20:51:49.914Z,13.30
2023-04-01T20:54:07.867Z,13.30
2023-04-01T20:56:40.035Z,13.20
2023-04-01T20:58:53.702Z,13.20
2023-04-01T21:01:06.658Z,13.10
2023-04-01T21:03:20.728Z,13.00
2023-04-01T21:05:48.741Z,13.00
2023-04-01T21:07:56.563Z,12.80
2023-04-01T21:10:29.135Z,12.70
2023-04-01T21:12:44.442Z,12.60
2023-04-01T21:14:59.636Z,12.60
2023-04-01T21:17:10.546Z,12.50
2023-04-01T21:19:27.486Z,12.50
2023-04-01T21:21:54.673Z,12.40
2023-04-01T21:24:28.240Z,12.20
2023-04-01T21:26:48.840Z,12.20
2023-04-01T21:29:20.938Z,12.10
2023-04-01T21:31:38.996Z,12.20
2023-04-01T21:33:56.120Z,12.10
2023-04-01T21:36:03.843Z,12.10
2023-04-01T21:38:22.506Z,12.10
2023-04-01T21:40:43.655Z,12.00
2023-04-01T21:42:56.404Z,12.00
2023-04-01T21:45:22.096Z,12.00
2023-04-01T21:48:08.465Z,12.10
2023-04-01T21:50:41.976Z,12.10
2023-04-01T21:53:27.373Z,12.10
2023-04-01T21:56:07.478Z,12.00
2023-04-01T21:58:47.838Z,11.90
2023-04-01T22:01:00.113Z,11.80
2023-04-01T22:03:33.889Z,11.80
2023-04-01T22:05:43.102Z,11.80
2023-04-01T22:07:51.794Z,11.50
2023-04-01T22:10:02.800Z,11.50
2023-04-01T22:12:14.376Z,11.60
2023-04-01T22:14:24.728Z,11.40
2023-04-01T22:16:37.428Z,11.40
2023-04-01T22:18:47.185Z,11.50
2023-04-01T22:20:54.769Z,11.40
2023-04-01T22:23:11.538Z,11.30
2023-04-01T22:25:20.704Z,11.30
2023-04-01T22:27:31.711Z,11.30
2023-04-01T22:29:42.775Z,11.40
2023-04-01T22:31:51.368Z,11.30
2023-04-01T22:34:02.308Z,11.30
2023-04-01T22:36:13.889Z,11.10
2023-04-01T22:38:29.684Z,11.20
2023-04-01T22:40:41.308Z,11.30
2023-04-01T22:42:46.908Z,11.20
2023-04-01T22:45:04.572Z,11.10
2023-04-01T22:47:11.189Z,11.00
2023-04-01T22:49:23.393Z,11.10
2023-04-01T22:51:33.148Z,11.10
2023-04-01T22:53:50.540Z,11.20
2023-04-01T22:55:55.425Z,11.00
2023-04-01T22:58:02.447Z,11.00
2023-04-01T23:00:16.084Z,11.00
2023-04-01T23:02:25.942Z,11.00
2023-04-01T23:04:34.585Z,10.90
2023-04-01T23:06:43.849Z,10.80
2023-04-01T23:09:07.178Z,10.90
2023-04-01T23:11:13.771Z,11.00
2023-04-01T23:13:21.232Z,10.90
2023-04-01T23:15:25.928Z,10.90
2023-04-01T23:17:51.768Z,10.90
2023-04-01T23:20:00.430Z,10.80
2023-04-01T23:22:11.032Z,10.80
2023-04-01T23:24:21.411Z,10.80
2023-04-01T23:26:32.355Z,10.80
2023-04-01T23:28:50.016Z,10.90
2023-04-01T23:30:54.887Z,10.90
2023-04-01T23:33:11.166Z,10.90
2023-04-01T23:35:18.365Z,10.80
2023-04-01T23:37:22.886Z,10.80
2023-04-01T23:39:30.210Z,10.80
2023-04-01T23:41:34.663Z,10.60
2023-04-01T23:43:41.211Z,10.60
2023-04-01T23:45:44.652Z,10.40
2023-04-01T23:47:51.631Z,10.30
2023-04-01T23:49:57.577Z,10.50
2023-04-01T23:52:01.865Z,10.40
2023-04-01T23:54:12.622Z,10.50
2023-04-01T23:56:18.643Z,10.30
2023-04-01T23:58:27.266Z,10.30
